Flight Track Log - Related Links

Times and Time Zones

All times are in EDT time to prevent confusion due to time zone crossing. See the KAP927 flight status page for this flight to view local times or setup timezone preferences in your user account.

Time Position Orientation Groundspeed Altitude Reporting Facility
EDT Latitude Longitude Course Direction KTS MPH feet Rate Location/Type
Thu 08:18:23 AM 42.7133 -73.7822 140° Southeast 119 137 1,700  Level Boston Center
Thu 08:19:24 AM 42.7203 -73.7372 78° East 121 139 2,300 595 Climbing Boston Center
Thu 08:20:24 AM 42.7269 -73.6950 78° East 119 137 2,900 645 Climbing Boston Center
Thu 08:21:25 AM 42.7336 -73.6528 78° East 120 138 3,600 590 Climbing Boston Center
Thu 08:22:26 AM 42.7403 -73.6047 79° East 127 146 4,100 545 Climbing Boston Center
Thu 08:23:26 AM 42.7514 -73.5483 75° East 135 155 4,700 545 Climbing Boston Center
Thu 08:24:27 AM 42.7603 -73.4978 77° East 139 160 5,200 496 Climbing Boston Center
Thu 08:25:27 AM 42.7669 -73.4497 79° East 138 159 5,700 496 Climbing Boston Center
Thu 08:26:28 AM 42.7756 -73.3989 77° East 137 158 6,200 492 Climbing Boston Center
Thu 08:27:29 AM 42.7803 -73.3453 83° East 144 166 6,700 404 Climbing Boston Center
Thu 08:28:12 AM 42.7681 -73.2997 110° East 153 176 6,900 233 Climbing Boston Center
Thu 08:29:12 AM 42.7561 -73.2489 108° East 172 198 7,100 50 Climbing Boston Center
Thu 08:30:12 AM 42.7461 -73.1864 102° East 172 198 7,000 -50 Descending Boston Center
Thu 08:31:12 AM 42.7361 -73.1214 102° East 166 191 7,000  Level Boston Center
Thu 08:32:12 AM 42.7258 -73.0619 103° East 166 191 7,000  Level Boston Center
Thu 08:33:12 AM 42.7158 -73.0025 103° East 166 191 7,000  Level Boston Center
Thu 08:34:12 AM 42.7056 -72.9431 103° East 161 185 7,000  Level Boston Center
Thu 08:35:12 AM 42.6956 -72.8808 102° East 161 185 7,000  Level Boston Center
Thu 08:36:12 AM 42.6853 -72.8186 103° East 161 185 7,000  Level Boston Center
Thu 08:37:12 AM 42.6750 -72.7592 103° East 166 191 7,000  Level Boston Center
Thu 08:38:13 AM 42.6628 -72.6997 106° East 166 191 7,000  Level Boston Center
Thu 08:39:12 AM 42.6525 -72.6378 103° East 166 191 7,000  Level Boston Center
Thu 08:40:12 AM 42.6400 -72.5783 106° East 166 191 7,000  Level Boston Center
Thu 08:41:12 AM 42.6297 -72.5164 103° East 166 191 7,000  Level Boston Center
Thu 08:42:12 AM 42.6192 -72.4569 104° East 166 191 7,000  Level Boston Center
Thu 08:43:12 AM 42.6067 -72.3978 106° East 166 191 7,000  Level Boston Center
Thu 08:44:12 AM 42.5964 -72.3358 103° East 166 191 7,000  Level Boston Center
Thu 08:45:12 AM 42.5858 -72.2764 104° East 161 185 7,000  Level Boston Center
Thu 08:46:12 AM 42.5731 -72.2117 105° East 172 198 7,000  Level Boston Center
Thu 08:47:12 AM 42.5625 -72.1583 105° East 161 185 7,000  Level Boston Center
Thu 08:48:12 AM 42.5500 -72.0933 105° East 167 192 7,000  Level Boston Center
Thu 08:49:12 AM 42.5414 -72.0342 101° East 167 192 7,000  Level Boston Center
Thu 08:50:12 AM 42.5369 -71.9667 95° East 167 192 7,000  Level Boston Center
Thu 08:51:12 AM 42.5325 -71.9106 96° East 162 186 7,000  Level Boston Center
Thu 08:52:12 AM 42.5258 -71.8428 98° East 162 186 7,000  Level Boston Center
Thu 08:53:12 AM 42.5214 -71.7867 96° East 162 186 7,000  Level Boston Center
Thu 08:54:12 AM 42.5147 -71.7189 98° East 162 186 7,000  Level Boston Center
Thu 08:55:12 AM 42.5103 -71.6628 96° East 162 186 7,000 50 Level Boston Center
Thu 08:56:12 AM 42.5000 -71.5833 100° East 172 198 7,100 50 Climbing KA90
Thu 08:57:12 AM 42.5000 -71.5333 90° East 171 197 7,100 -250 Level KA90
Thu 08:58:12 AM 42.5000 -71.4667 90° East 176 203 6,600 -550 Descending KA90
Thu 08:59:12 AM 42.4833 -71.3833 105° East 193 222 6,000 -500 Descending KA90
Thu 09:00:12 AM 42.4500 -71.3333 132° Southeast 185 213 5,600 -400 Descending KA90
Thu 09:01:12 AM 42.4167 -71.3000 144° Southeast 179 206 5,200 -450 Descending KA90
Thu 09:02:12 AM 42.3667 -71.2667 154° Southeast 176 203 4,700 -400 Descending KA90
Thu 09:03:12 AM 42.3333 -71.2333 144° Southeast 172 198 4,400 -400 Descending KA90
Thu 09:04:12 AM 42.2833 -71.2000 154° Southeast 170 196 3,900 -450 Descending KA90
Thu 09:05:12 AM 42.2500 -71.1833 160° South 170 196 3,500 -400 Descending KA90
Thu 09:06:12 AM 42.2000 -71.1500 154° Southeast 170 196 3,100 -250 Descending KA90
Thu 09:07:12 AM 42.2000 -71.0833 90° East 169 194 3,000 -400 Descending KA90
Thu 09:08:12 AM 42.2500 -71.0667 14° North 186 214 2,300 -700 Descending KA90
Thu 09:09:12 AM 42.3000 -71.0333 26° Northeast 180 207 1,600 -800 Descending KA90
Thu 09:10:12 AM 42.3333 -71.0167 20° North 151 174 700 -900 Descending KA90
Thu 09:12:00 AM 42.3500 -71.0000 270° West  Level FlightAware Approximate
Thu 09:19:00 AM 42.3630 -71.0064 270° West  Level Estimated

Login

Don't have an account? Register now (free) for customized features, flight alerts, and more!